createdAt,value
2023-04-27T00:00:19.584Z,1298.00
2023-04-27T00:01:19.565Z,1298.00
2023-04-27T00:02:19.684Z,1297.00
2023-04-27T00:03:19.824Z,1299.00
2023-04-27T00:04:19.697Z,1297.00
2023-04-27T00:05:19.682Z,1296.00
2023-04-27T00:06:19.728Z,1296.00
2023-04-27T00:07:19.601Z,1296.00
2023-04-27T00:08:19.611Z,1295.00
2023-04-27T00:09:19.643Z,1292.00
2023-04-27T00:10:19.638Z,1290.00
2023-04-27T00:11:19.635Z,1290.00
2023-04-27T00:12:19.642Z,1291.00
2023-04-27T00:13:19.659Z,1294.00
2023-04-27T00:14:19.665Z,1293.00
2023-04-27T00:15:19.675Z,1291.00
2023-04-27T00:16:19.719Z,1291.00
2023-04-27T00:17:19.702Z,1289.00
2023-04-27T00:18:19.701Z,1286.00
2023-04-27T00:19:19.708Z,1290.00
2023-04-27T00:20:19.717Z,1293.00
2023-04-27T00:21:19.727Z,1290.00
2023-04-27T00:22:19.744Z,1290.00
2023-04-27T00:23:19.737Z,1291.00
2023-04-27T00:24:19.752Z,1292.00
2023-04-27T00:25:19.763Z,1289.00
2023-04-27T00:26:19.763Z,1287.00
2023-04-27T00:27:19.787Z,1285.00
2023-04-27T00:28:19.788Z,1284.00
2023-04-27T00:29:19.796Z,1284.00
2023-04-27T00:30:19.807Z,1285.00
2023-04-27T00:31:19.873Z,1280.00
2023-04-27T00:32:19.854Z,1277.00
2023-04-27T00:33:19.830Z,1278.00
2023-04-27T00:34:19.851Z,1280.00
2023-04-27T00:35:19.864Z,1280.00
2023-04-27T00:36:19.880Z,1280.00
2023-04-27T00:37:19.884Z,1283.00
2023-04-27T00:38:19.903Z,1282.00
2023-04-27T00:39:19.918Z,1281.00
2023-04-27T00:40:19.930Z,1283.00
2023-04-27T00:41:19.940Z,1279.00
2023-04-27T00:42:19.955Z,1278.00
2023-04-27T00:43:19.972Z,1281.00
2023-04-27T00:44:19.980Z,1282.00
2023-04-27T00:45:19.997Z,1284.00
2023-04-27T00:46:20.054Z,1286.00
2023-04-27T00:47:20.068Z,1284.00
2023-04-27T00:48:20.325Z,1282.00
2023-04-27T00:49:20.057Z,1283.00
2023-04-27T00:50:20.189Z,1282.00
2023-04-27T00:51:20.094Z,1279.00
2023-04-27T00:52:20.102Z,1279.00
2023-04-27T00:53:20.269Z,1279.00
2023-04-27T00:54:20.138Z,1281.00
2023-04-27T00:55:20.147Z,1282.00
2023-04-27T00:56:20.173Z,1278.00
2023-04-27T00:57:20.184Z,1279.00
2023-04-27T00:58:20.196Z,1277.00
2023-04-27T00:59:20.210Z,1276.00
2023-04-27T01:00:20.238Z,1273.00
2023-04-27T01:01:20.252Z,1274.00
2023-04-27T01:02:20.338Z,1274.00
2023-04-27T01:03:20.478Z,1273.00
2023-04-27T01:04:20.427Z,1272.00
2023-04-27T01:05:20.282Z,1268.00
2023-04-27T01:06:20.289Z,1265.00
2023-04-27T01:07:20.328Z,1262.00
2023-04-27T01:08:20.323Z,1264.00
2023-04-27T01:09:20.378Z,1264.00
2023-04-27T01:10:20.369Z,1261.00
2023-04-27T01:11:20.391Z,1261.00
2023-04-27T01:12:20.396Z,1257.00
2023-04-27T01:13:20.426Z,1258.00
2023-04-27T01:14:20.431Z,1257.00
2023-04-27T01:15:20.453Z,1253.00
2023-04-27T01:16:20.530Z,1252.00
2023-04-27T01:17:20.475Z,1252.00
2023-04-27T01:18:20.504Z,1253.00
2023-04-27T01:19:20.512Z,1252.00
2023-04-27T01:20:20.523Z,1254.00
2023-04-27T01:21:20.544Z,1252.00
2023-04-27T01:22:20.559Z,1251.00
2023-04-27T01:23:20.575Z,1250.00
2023-04-27T01:24:20.598Z,1247.00
2023-04-27T01:25:20.623Z,1243.00
2023-04-27T01:26:20.629Z,1246.00
2023-04-27T01:27:20.636Z,1249.00
2023-04-27T01:28:20.665Z,1253.00
2023-04-27T01:29:20.671Z,1259.00
2023-04-27T01:30:20.684Z,1259.00
2023-04-27T01:31:20.725Z,1256.00
2023-04-27T01:32:20.734Z,1258.00
2023-04-27T01:33:20.734Z,1257.00
2023-04-27T01:34:20.761Z,1257.00
2023-04-27T01:35:20.777Z,1257.00
2023-04-27T01:36:20.792Z,1254.00
2023-04-27T01:37:20.811Z,1254.00
2023-04-27T01:38:20.837Z,1253.00
2023-04-27T01:39:20.853Z,1255.00
2023-04-27T01:40:20.880Z,1256.00
2023-04-27T01:41:20.883Z,1257.00
2023-04-27T01:42:20.898Z,1257.00
2023-04-27T01:43:20.915Z,1259.00
2023-04-27T01:44:20.932Z,1259.00
2023-04-27T01:45:20.949Z,1260.00
2023-04-27T01:46:20.986Z,1259.00
2023-04-27T01:47:20.975Z,1255.00
2023-04-27T01:48:20.995Z,1257.00
2023-04-27T01:49:21.014Z,1255.00
2023-04-27T01:50:21.024Z,1253.00
2023-04-27T01:51:21.032Z,1250.00
2023-04-27T01:52:21.058Z,1249.00
2023-04-27T01:53:21.068Z,1249.00
2023-04-27T01:54:21.088Z,1249.00
2023-04-27T01:55:21.097Z,1251.00
2023-04-27T01:56:21.113Z,1250.00
2023-04-27T01:57:21.146Z,1250.00
2023-04-27T01:58:21.150Z,1247.00
2023-04-27T01:59:21.174Z,1246.00
2023-04-27T02:00:21.184Z,1244.00
2023-04-27T02:01:21.223Z,1244.00
2023-04-27T02:02:21.388Z,1244.00
2023-04-27T02:03:21.302Z,1244.00
2023-04-27T02:04:21.464Z,1242.00
2023-04-27T02:05:21.255Z,1243.00
2023-04-27T02:06:21.258Z,1243.00
2023-04-27T02:07:21.275Z,1245.00
2023-04-27T02:08:21.282Z,1242.00
2023-04-27T02:09:21.299Z,1243.00
2023-04-27T02:10:21.311Z,1242.00
2023-04-27T02:11:21.323Z,1244.00
2023-04-27T02:12:21.349Z,1241.00
2023-04-27T02:13:21.372Z,1245.00
2023-04-27T02:14:21.363Z,1245.00
2023-04-27T02:15:21.371Z,1243.00
2023-04-27T02:16:21.414Z,1242.00
2023-04-27T02:17:21.415Z,1243.00
2023-04-27T02:18:21.420Z,1245.00
2023-04-27T02:19:21.432Z,1241.00
2023-04-27T02:20:21.450Z,1240.00
2023-04-27T02:21:21.465Z,1237.00
2023-04-27T02:22:21.477Z,1238.00
2023-04-27T02:23:21.500Z,1236.00
2023-04-27T02:24:21.584Z,1233.00
2023-04-27T02:25:21.531Z,1234.00
2023-04-27T02:26:21.546Z,1235.00
2023-04-27T02:27:21.565Z,1237.00
2023-04-27T02:28:21.574Z,1236.00
2023-04-27T02:29:21.585Z,1234.00
2023-04-27T02:31:40.504Z,1225.00
2023-04-27T02:32:40.428Z,1222.00
2023-04-27T02:33:40.394Z,1225.00
2023-04-27T02:34:40.392Z,1223.00
2023-04-27T02:35:40.410Z,1226.00
2023-04-27T02:36:40.380Z,1228.00
2023-04-27T02:37:40.383Z,1227.00
2023-04-27T02:38:40.383Z,1224.00
2023-04-27T02:39:40.395Z,1224.00
2023-04-27T02:40:40.374Z,1220.00
2023-04-27T02:41:40.363Z,1222.00
2023-04-27T02:42:40.366Z,1221.00
2023-04-27T02:43:40.369Z,1219.00
2023-04-27T02:44:40.364Z,1214.00
2023-04-27T02:45:40.361Z,1214.00
2023-04-27T02:46:40.388Z,1216.00
2023-04-27T02:47:40.374Z,1216.00
2023-04-27T02:48:40.339Z,1213.00
2023-04-27T02:49:40.338Z,1209.00
2023-04-27T02:50:40.339Z,1205.00
2023-04-27T02:51:40.329Z,1206.00
2023-04-27T02:52:40.327Z,1205.00
2023-04-27T02:53:40.326Z,1204.00
2023-04-27T02:54:40.316Z,1204.00
2023-04-27T02:55:40.316Z,1206.00
2023-04-27T02:56:40.300Z,1207.00
2023-04-27T02:57:40.296Z,1206.00
2023-04-27T02:58:40.284Z,1202.00
2023-04-27T02:59:40.282Z,1202.00
2023-04-27T03:00:40.277Z,1207.00
2023-04-27T03:01:40.426Z,1207.00
2023-04-27T03:02:40.435Z,1206.00
2023-04-27T03:03:40.349Z,1206.00
2023-04-27T03:04:40.294Z,1205.00
2023-04-27T03:05:40.243Z,1203.00
2023-04-27T03:06:40.230Z,1207.00
2023-04-27T03:07:40.230Z,1207.00
2023-04-27T03:08:40.220Z,1206.00
2023-04-27T03:09:40.220Z,1209.00
2023-04-27T03:10:40.212Z,1208.00
2023-04-27T03:11:40.207Z,1208.00
2023-04-27T03:12:40.210Z,1205.00
2023-04-27T03:13:40.199Z,1205.00
2023-04-27T03:14:40.197Z,1205.00
2023-04-27T03:15:40.195Z,1206.00
2023-04-27T03:16:40.240Z,1208.00
2023-04-27T03:17:40.212Z,1207.00
2023-04-27T03:18:40.189Z,1208.00
2023-04-27T03:19:40.185Z,1209.00
2023-04-27T03:20:40.184Z,1207.00
2023-04-27T03:21:40.172Z,1211.00
2023-04-27T03:22:40.177Z,1211.00
2023-04-27T03:23:40.175Z,1212.00
2023-04-27T03:24:40.165Z,1213.00
2023-04-27T03:25:40.162Z,1209.00
2023-04-27T03:26:40.155Z,1207.00
2023-04-27T03:27:40.147Z,1203.00
2023-04-27T03:28:40.135Z,1201.00
2023-04-27T03:29:40.143Z,1199.00
2023-04-27T03:30:40.128Z,1196.00
2023-04-27T03:31:40.167Z,1198.00
2023-04-27T03:32:40.153Z,1198.00
2023-04-27T03:33:40.112Z,1200.00
2023-04-27T03:34:40.118Z,1195.00
2023-04-27T03:35:40.110Z,1189.00
2023-04-27T03:36:40.146Z,1187.00
2023-04-27T03:37:40.099Z,1182.00
2023-04-27T03:38:40.093Z,1180.00
2023-04-27T03:39:40.089Z,1179.00
2023-04-27T03:40:40.097Z,1178.00
2023-04-27T03:41:40.062Z,1180.00
2023-04-27T03:42:40.068Z,1177.00
2023-04-27T03:43:40.053Z,1177.00
2023-04-27T03:44:40.054Z,1178.00
2023-04-27T03:45:40.044Z,1182.00
2023-04-27T03:46:40.014Z,1183.00
2023-04-27T03:47:40.168Z,1183.00
2023-04-27T03:48:39.983Z,1183.00
2023-04-27T03:49:39.982Z,1184.00
2023-04-27T03:50:39.967Z,1184.00
2023-04-27T03:51:39.960Z,1182.00
2023-04-27T03:52:39.955Z,1179.00
2023-04-27T03:53:39.938Z,1177.00
2023-04-27T03:54:39.944Z,1178.00
2023-04-27T03:55:39.936Z,1178.00
2023-04-27T03:56:39.931Z,1176.00
2023-04-27T03:57:39.936Z,1178.00
2023-04-27T03:58:39.941Z,1179.00
2023-04-27T03:59:39.931Z,1180.00
2023-04-27T04:00:39.918Z,1181.00
2023-04-27T04:01:40.010Z,1179.00
2023-04-27T04:02:40.084Z,1179.00
2023-04-27T04:03:40.042Z,1179.00
2023-04-27T04:04:40.125Z,1182.00
2023-04-27T04:05:39.906Z,1182.00
2023-04-27T04:06:39.920Z,1178.00
2023-04-27T04:07:39.939Z,1176.00
2023-04-27T04:08:39.954Z,1178.00
2023-04-27T04:09:39.979Z,1179.00
2023-04-27T04:10:39.989Z,1182.00
2023-04-27T04:11:40.013Z,1177.00
2023-04-27T04:12:40.044Z,1170.00
2023-04-27T04:13:40.072Z,1167.00
2023-04-27T04:14:40.091Z,1167.00
2023-04-27T04:15:40.161Z,1169.00
2023-04-27T04:16:40.133Z,1170.00
2023-04-27T04:17:40.174Z,1166.00
2023-04-27T04:18:40.176Z,1167.00
2023-04-27T04:19:40.206Z,1168.00
2023-04-27T04:20:40.223Z,1166.00
2023-04-27T04:21:40.249Z,1165.00
2023-04-27T04:22:40.271Z,1166.00
2023-04-27T04:23:40.290Z,1164.00
2023-04-27T04:24:40.317Z,1163.00
2023-04-27T04:25:40.383Z,1163.00
2023-04-27T04:26:40.345Z,1164.00
2023-04-27T04:27:40.383Z,1167.00
2023-04-27T04:28:40.400Z,1164.00
2023-04-27T04:29:40.437Z,1163.00
2023-04-27T04:30:40.448Z,1164.00
2023-04-27T04:31:40.484Z,1160.00
2023-04-27T04:32:40.536Z,1163.00
2023-04-27T04:33:40.495Z,1163.00
2023-04-27T04:34:40.516Z,1162.00
2023-04-27T04:35:40.532Z,1161.00
2023-04-27T04:36:40.573Z,1155.00
2023-04-27T04:37:40.598Z,1153.00
2023-04-27T04:38:40.596Z,1156.00
2023-04-27T04:39:40.620Z,1157.00
2023-04-27T04:40:40.655Z,1160.00
2023-04-27T04:41:40.670Z,1158.00
2023-04-27T04:42:40.702Z,1159.00
2023-04-27T04:43:40.721Z,1157.00
2023-04-27T04:44:40.774Z,1160.00
2023-04-27T04:45:40.787Z,1161.00
2023-04-27T04:46:40.873Z,1160.00
2023-04-27T04:47:40.853Z,1159.00
2023-04-27T04:48:40.846Z,1156.00
2023-04-27T04:49:40.879Z,1158.00
2023-04-27T04:50:40.897Z,1159.00
2023-04-27T04:51:40.917Z,1162.00
2023-04-27T04:52:40.939Z,1161.00
2023-04-27T04:53:40.964Z,1162.00
2023-04-27T04:54:40.982Z,1157.00
2023-04-27T04:55:41.003Z,1161.00
2023-04-27T04:56:41.017Z,1161.00
2023-04-27T04:57:41.051Z,1158.00
2023-04-27T04:58:41.071Z,1156.00
2023-04-27T04:59:41.080Z,1157.00
2023-04-27T05:00:41.107Z,1155.00
2023-04-27T05:01:41.202Z,1154.00
2023-04-27T05:02:41.355Z,1152.00
2023-04-27T05:03:41.397Z,1152.00
2023-04-27T05:04:41.355Z,1153.00
2023-04-27T05:05:41.230Z,1151.00
2023-04-27T05:06:41.254Z,1150.00
2023-04-27T05:07:41.272Z,1150.00
2023-04-27T05:08:41.294Z,1149.00
2023-04-27T05:09:42.111Z,1149.00
2023-04-27T05:10:41.345Z,1147.00
2023-04-27T05:11:41.359Z,1146.00
2023-04-27T05:12:41.389Z,1148.00
2023-04-27T05:13:41.410Z,1150.00
2023-04-27T05:14:41.411Z,1150.00
2023-04-27T05:15:41.429Z,1149.00
2023-04-27T05:16:41.552Z,1147.00
2023-04-27T05:17:41.530Z,1142.00
2023-04-27T05:18:41.503Z,1139.00
2023-04-27T05:19:41.516Z,1136.00
2023-04-27T05:20:41.552Z,1129.00
2023-04-27T05:21:41.559Z,1124.00
2023-04-27T05:22:41.569Z,1126.00
2023-04-27T05:23:41.598Z,1128.00
2023-04-27T05:24:41.605Z,1128.00
2023-04-27T05:25:41.739Z,1183.00
2023-04-27T05:26:41.628Z,1267.00
2023-04-27T05:27:41.650Z,1363.00
2023-04-27T05:28:41.650Z,1437.00
2023-04-27T05:29:41.649Z,1407.00
2023-04-27T05:30:41.632Z,1414.00
2023-04-27T05:31:41.678Z,1425.00
2023-04-27T05:32:41.688Z,1516.00
2023-04-27T05:33:41.689Z,1518.00
2023-04-27T05:34:41.752Z,1531.00
2023-04-27T05:35:41.807Z,1633.00
2023-04-27T05:36:41.854Z,1651.00
2023-04-27T05:37:42.036Z,1667.00
2023-04-27T05:38:41.961Z,1690.00
2023-04-27T05:39:41.974Z,1729.00
2023-04-27T05:40:42.017Z,1754.00
2023-04-27T05:41:42.054Z,2030.00
2023-04-27T05:42:42.058Z,1912.00
2023-04-27T05:43:42.141Z,1908.00
2023-04-27T05:44:42.172Z,1919.00
2023-04-27T05:45:42.180Z,1933.00
2023-04-27T05:46:42.186Z,1950.00
2023-04-27T05:47:42.187Z,1986.00
2023-04-27T05:48:42.170Z,2045.00
2023-04-27T05:49:42.185Z,2056.00
2023-04-27T05:50:42.186Z,2087.00
2023-04-27T05:51:42.159Z,2164.00
2023-04-27T05:52:42.106Z,2190.00
2023-04-27T05:53:42.172Z,2214.00
2023-04-27T05:54:42.057Z,2261.00
2023-04-27T05:55:42.023Z,2290.00
2023-04-27T05:56:42.014Z,2334.00
2023-04-27T05:57:41.983Z,2353.00
2023-04-27T05:58:41.947Z,2356.00
2023-04-27T05:59:41.937Z,2364.00
2023-04-27T06:00:41.916Z,2382.00
2023-04-27T06:01:41.887Z,2467.00
2023-04-27T06:02:41.977Z,2490.00
2023-04-27T06:03:42.028Z,2540.00
2023-04-27T06:04:41.870Z,2547.00
2023-04-27T06:05:41.944Z,2575.00
2023-04-27T06:06:41.761Z,2685.00
2023-04-27T06:07:41.727Z,2716.00
2023-04-27T06:08:41.697Z,2738.00
2023-04-27T06:09:41.776Z,2735.00
2023-04-27T06:10:41.663Z,2780.00
2023-04-27T06:11:41.646Z,2799.00
2023-04-27T06:12:41.641Z,2817.00
2023-04-27T06:13:41.621Z,2827.00
2023-04-27T06:14:41.598Z,2849.00
2023-04-27T06:15:41.651Z,2920.00
2023-04-27T06:16:41.558Z,2955.00
2023-04-27T06:17:41.612Z,2971.00
2023-04-27T06:18:41.524Z,3139.00
2023-04-27T06:19:41.494Z,3059.00
2023-04-27T06:20:41.481Z,3068.00
2023-04-27T06:21:41.452Z,2910.00
2023-04-27T06:22:41.442Z,3034.00
2023-04-27T06:23:42.158Z,2799.00
2023-04-27T06:24:41.480Z,2980.00
2023-04-27T06:25:41.374Z,3038.00
2023-04-27T06:26:42.142Z,3121.00
2023-04-27T06:27:41.320Z,3273.00
2023-04-27T06:28:41.326Z,3286.00
2023-04-27T06:29:41.322Z,3298.00
2023-04-27T06:30:41.289Z,3316.00
2023-04-27T06:31:41.321Z,3433.00
2023-04-27T06:32:41.272Z,3442.00
2023-04-27T06:33:41.191Z,3425.00
2023-04-27T06:34:41.153Z,3440.00
2023-04-27T06:35:41.148Z,3447.00
2023-04-27T06:36:41.736Z,3462.00
2023-04-27T06:37:41.078Z,3477.00
2023-04-27T06:38:41.037Z,3492.00
2023-04-27T06:39:41.066Z,3496.00
2023-04-27T06:40:41.079Z,3516.00
2023-04-27T06:41:41.069Z,3540.00
2023-04-27T06:42:41.108Z,3401.00
2023-04-27T06:43:41.134Z,3521.00
2023-04-27T06:44:41.176Z,3577.00
2023-04-27T06:45:41.219Z,3602.00
2023-04-27T06:46:41.299Z,3623.00
2023-04-27T06:47:41.375Z,3735.00
2023-04-27T06:48:41.342Z,3748.00
2023-04-27T06:49:41.373Z,3756.00
2023-04-27T06:50:41.419Z,3857.00
2023-04-27T06:51:41.483Z,3830.00
2023-04-27T06:52:41.494Z,3844.00
2023-04-27T06:53:41.532Z,3869.00
2023-04-27T06:54:41.578Z,4088.00
2023-04-27T06:55:43.532Z,4025.00
2023-04-27T06:56:41.605Z,4025.00
2023-04-27T06:57:41.570Z,4020.00
2023-04-27T06:58:41.553Z,4024.00
2023-04-27T06:59:41.514Z,4027.00
2023-04-27T07:00:41.497Z,4041.00
2023-04-27T07:01:41.502Z,4071.00
2023-04-27T07:02:42.211Z,4101.00
2023-04-27T07:03:41.585Z,4099.00
2023-04-27T07:04:41.404Z,4107.00
2023-04-27T07:05:41.358Z,4125.00
2023-04-27T07:06:41.337Z,4172.00
2023-04-27T07:07:41.299Z,4240.00
2023-04-27T07:08:41.272Z,4274.00
2023-04-27T07:09:41.251Z,4305.00
2023-04-27T07:10:41.243Z,4337.00
2023-04-27T07:11:41.190Z,4379.00
2023-04-27T07:12:41.163Z,4433.00
2023-04-27T07:13:41.136Z,4515.00
2023-04-27T07:14:41.102Z,4518.00
2023-04-27T07:15:41.108Z,4536.00
2023-04-27T07:16:41.115Z,4570.00
2023-04-27T07:17:41.004Z,4568.00
2023-04-27T07:18:42.082Z,4557.00
2023-04-27T07:19:40.974Z,3507.00
2023-04-27T07:20:42.169Z,3033.00
2023-04-27T07:21:41.149Z,2468.00
2023-04-27T07:22:41.842Z,2418.00
2023-04-27T07:23:40.939Z,2357.00
2023-04-27T07:24:40.929Z,2629.00
2023-04-27T07:25:40.897Z,2647.00
2023-04-27T07:26:40.867Z,2669.00
2023-04-27T07:27:41.594Z,2729.00
2023-04-27T07:28:40.865Z,2839.00
2023-04-27T07:29:41.588Z,2893.00
2023-04-27T07:30:40.909Z,2934.00
2023-04-27T07:31:40.996Z,2990.00
2023-04-27T07:32:41.033Z,3045.00
2023-04-27T07:33:41.019Z,3065.00
2023-04-27T07:34:52.079Z,3108.00
2023-04-27T07:35:42.074Z,3188.00
2023-04-27T07:36:40.998Z,3208.00
2023-04-27T07:37:40.960Z,3221.00
2023-04-27T07:38:40.923Z,3237.00
2023-04-27T07:39:40.882Z,3268.00
2023-04-27T07:40:42.118Z,3309.00
2023-04-27T07:41:40.826Z,3406.00
2023-04-27T07:42:40.784Z,3417.00
2023-04-27T07:43:40.770Z,3437.00
2023-04-27T07:44:40.878Z,3479.00
2023-04-27T07:45:40.828Z,3520.00
2023-04-27T07:46:40.799Z,3548.00
2023-04-27T07:47:40.825Z,3573.00
2023-04-27T07:48:40.780Z,3593.00
2023-04-27T07:49:40.784Z,3614.00
2023-04-27T07:50:40.889Z,3639.00
2023-04-27T07:51:40.799Z,3663.00
2023-04-27T07:52:40.761Z,3688.00
2023-04-27T07:53:40.769Z,3722.00
2023-04-27T07:54:40.784Z,3781.00
2023-04-27T07:55:40.781Z,3798.00
2023-04-27T07:56:40.771Z,3826.00
2023-04-27T07:57:40.776Z,3880.00
2023-04-27T07:58:40.779Z,3907.00
2023-04-27T07:59:40.772Z,3934.00
2023-04-27T08:00:40.775Z,3962.00
2023-04-27T08:01:40.760Z,3991.00
2023-04-27T08:02:40.897Z,4025.00
2023-04-27T08:03:41.013Z,4080.00
2023-04-27T08:04:41.153Z,4117.00
2023-04-27T08:05:41.236Z,4162.00
2023-04-27T08:06:41.273Z,4179.00
2023-04-27T08:07:44.468Z,4212.00
2023-04-27T08:08:40.883Z,4171.00
2023-04-27T08:09:40.616Z,4102.00
2023-04-27T08:10:41.174Z,3729.00
2023-04-27T08:11:40.568Z,3798.00
2023-04-27T08:12:40.530Z,3800.00
2023-04-27T08:13:41.105Z,2851.00
2023-04-27T08:14:40.475Z,2471.00
2023-04-27T08:15:41.192Z,2375.00
2023-04-27T08:16:40.482Z,1936.00
2023-04-27T08:17:40.465Z,1677.00
2023-04-27T08:18:40.397Z,1595.00
2023-04-27T08:19:40.365Z,1552.00
2023-04-27T08:20:40.342Z,1469.00
2023-04-27T08:21:40.318Z,1392.00
2023-04-27T08:22:40.320Z,1210.00
2023-04-27T08:23:40.278Z,1186.00
2023-04-27T08:24:40.266Z,1210.00
2023-04-27T08:25:40.244Z,1329.00
2023-04-27T08:26:40.234Z,1448.00
2023-04-27T08:27:40.349Z,1370.00
2023-04-27T08:28:40.195Z,1407.00
2023-04-27T08:29:40.163Z,1523.00
2023-04-27T08:30:40.151Z,1536.00
2023-04-27T08:31:40.255Z,1548.00
2023-04-27T08:32:40.146Z,1564.00
2023-04-27T08:33:40.215Z,1588.00
2023-04-27T08:34:40.058Z,1664.00
2023-04-27T08:35:40.697Z,1687.00
2023-04-27T08:36:40.020Z,1705.00
2023-04-27T08:37:39.997Z,1737.00
2023-04-27T08:38:40.687Z,1783.00
2023-04-27T08:39:39.941Z,1807.00
2023-04-27T08:40:39.907Z,1839.00
2023-04-27T08:41:42.708Z,1893.00
2023-04-27T08:42:39.957Z,1944.00
2023-04-27T08:43:39.844Z,1970.00
2023-04-27T08:44:39.834Z,1990.00
2023-04-27T08:45:39.790Z,2041.00
2023-04-27T08:46:39.806Z,2066.00
2023-04-27T08:47:43.254Z,2072.00
2023-04-27T08:48:40.735Z,2090.00
2023-04-27T08:49:39.676Z,2111.00
2023-04-27T08:50:39.657Z,2164.00
2023-04-27T08:51:39.625Z,2211.00
2023-04-27T08:52:39.592Z,2241.00
2023-04-27T08:53:39.562Z,2258.00
2023-04-27T08:54:39.554Z,2320.00
2023-04-27T08:55:39.519Z,2328.00
2023-04-27T08:56:39.495Z,2367.00
2023-04-27T08:57:39.496Z,2413.00
2023-04-27T08:58:39.554Z,2445.00
2023-04-27T08:59:39.553Z,2499.00
2023-04-27T09:00:39.561Z,2522.00
2023-04-27T09:01:39.629Z,2546.00
2023-04-27T09:02:39.697Z,2570.00
2023-04-27T09:03:39.834Z,2596.00
2023-04-27T09:04:39.763Z,2675.00
2023-04-27T09:05:46.629Z,2674.00
2023-04-27T09:06:40.615Z,2700.00
2023-04-27T09:07:39.557Z,2781.00
2023-04-27T09:08:39.711Z,2798.00
2023-04-27T09:09:39.492Z,2796.00
2023-04-27T09:10:39.453Z,2818.00
2023-04-27T09:11:39.410Z,2871.00
2023-04-27T09:12:39.384Z,2888.00
2023-04-27T09:13:39.417Z,2936.00
2023-04-27T09:14:39.396Z,3019.00
2023-04-27T09:15:40.275Z,2989.00
2023-04-27T09:16:39.257Z,2825.00
2023-04-27T09:17:39.235Z,2947.00
2023-04-27T09:18:39.185Z,2897.00
2023-04-27T09:19:39.154Z,2115.00
2023-04-27T09:20:39.119Z,1964.00
2023-04-27T09:21:39.111Z,1918.00
2023-04-27T09:22:39.063Z,1937.00
2023-04-27T09:23:39.173Z,2044.00
2023-04-27T09:24:39.081Z,2320.00
2023-04-27T09:25:38.959Z,2376.00
2023-04-27T09:26:38.959Z,2488.00
2023-04-27T09:27:38.924Z,2366.00
2023-04-27T09:28:38.897Z,2370.00
2023-04-27T09:29:38.992Z,2377.00
2023-04-27T09:30:38.809Z,2395.00
2023-04-27T09:31:38.788Z,2405.00
2023-04-27T09:32:38.748Z,2406.00
2023-04-27T09:33:39.230Z,2397.00
2023-04-27T09:34:38.693Z,2385.00
2023-04-27T09:35:38.677Z,2375.00
2023-04-27T09:36:38.668Z,2373.00
2023-04-27T09:37:39.170Z,2374.00
2023-04-27T09:38:38.624Z,2369.00
2023-04-27T09:39:38.608Z,2363.00
2023-04-27T09:40:38.599Z,2354.00
2023-04-27T09:41:40.237Z,2353.00
2023-04-27T09:42:38.555Z,2358.00
2023-04-27T09:43:38.552Z,2363.00
2023-04-27T09:44:38.584Z,2366.00
2023-04-27T09:45:38.490Z,2366.00
2023-04-27T09:46:39.220Z,2368.00
2023-04-27T09:47:38.487Z,2373.00
2023-04-27T09:48:38.381Z,2373.00
2023-04-27T09:49:38.379Z,2372.00
2023-04-27T09:50:38.372Z,2372.00
2023-04-27T09:51:38.309Z,2366.00
2023-04-27T09:52:38.281Z,2365.00
2023-04-27T09:53:38.277Z,2363.00
2023-04-27T09:54:38.301Z,2364.00
2023-04-27T09:55:38.207Z,2360.00
2023-04-27T09:56:38.190Z,2360.00
2023-04-27T09:57:38.881Z,2358.00
2023-04-27T09:58:38.154Z,2358.00
2023-04-27T09:59:39.110Z,2347.00
2023-04-27T10:00:38.072Z,2347.00
2023-04-27T10:01:38.100Z,2342.00
2023-04-27T10:02:50.307Z,2342.00
2023-04-27T10:03:39.080Z,2344.00
2023-04-27T10:04:38.076Z,2346.00
2023-04-27T10:05:38.036Z,2344.00
2023-04-27T10:06:37.968Z,2340.00
2023-04-27T10:07:37.923Z,2339.00
2023-04-27T10:08:38.907Z,2337.00
2023-04-27T10:09:37.859Z,2339.00
2023-04-27T10:10:37.823Z,2340.00
2023-04-27T10:11:37.807Z,2338.00
2023-04-27T10:12:37.787Z,2334.00
2023-04-27T10:13:37.761Z,2330.00
2023-04-27T10:14:37.732Z,2330.00
2023-04-27T10:15:37.695Z,2330.00
2023-04-27T10:16:37.683Z,2323.00
2023-04-27T10:17:37.766Z,2319.00
2023-04-27T10:18:37.619Z,2315.00
2023-04-27T10:19:37.609Z,2317.00
2023-04-27T10:20:37.593Z,2316.00
2023-04-27T10:21:37.563Z,2313.00
2023-04-27T10:22:37.518Z,2317.00
2023-04-27T10:23:37.507Z,2310.00
2023-04-27T10:24:37.472Z,2309.00
2023-04-27T10:25:37.454Z,2310.00
2023-04-27T10:26:39.319Z,2309.00
2023-04-27T10:27:38.223Z,2307.00
2023-04-27T10:28:37.507Z,2307.00
2023-04-27T10:29:37.508Z,2304.00
2023-04-27T10:30:37.530Z,2308.00
2023-04-27T10:31:37.507Z,2303.00
2023-04-27T10:32:37.644Z,2304.00
2023-04-27T10:33:37.528Z,2304.00
2023-04-27T10:34:37.536Z,2306.00
2023-04-27T10:35:37.537Z,2306.00
2023-04-27T10:36:38.253Z,2306.00
2023-04-27T10:37:37.562Z,2298.00
2023-04-27T10:38:37.588Z,2297.00
2023-04-27T10:39:47.909Z,2293.00
2023-04-27T10:40:38.576Z,2287.00
2023-04-27T10:41:37.502Z,2282.00
2023-04-27T10:42:37.475Z,2281.00
2023-04-27T10:43:37.515Z,2282.00
2023-04-27T10:44:37.440Z,2285.00
2023-04-27T10:45:37.419Z,2281.00
2023-04-27T10:46:37.467Z,2275.00
2023-04-27T10:47:37.396Z,2274.00
2023-04-27T10:48:37.348Z,2271.00
2023-04-27T10:49:37.312Z,2274.00
2023-04-27T10:50:37.309Z,2274.00
2023-04-27T10:51:37.268Z,2274.00
2023-04-27T10:52:37.244Z,2274.00
2023-04-27T10:53:37.216Z,2275.00
2023-04-27T10:54:37.201Z,2271.00
2023-04-27T10:55:37.181Z,2273.00
2023-04-27T10:56:37.147Z,2271.00
2023-04-27T10:57:37.119Z,2274.00
2023-04-27T10:58:48.247Z,2270.00
2023-04-27T10:59:38.066Z,2265.00
2023-04-27T11:00:37.037Z,2266.00
2023-04-27T11:01:37.046Z,2266.00
2023-04-27T11:02:37.050Z,2266.00
2023-04-27T11:03:37.132Z,2263.00
2023-04-27T11:04:37.021Z,2261.00
2023-04-27T11:05:36.941Z,2263.00
2023-04-27T11:06:36.922Z,2266.00
2023-04-27T11:07:36.887Z,2267.00
2023-04-27T11:08:36.914Z,2262.00
2023-04-27T11:09:36.852Z,2255.00
2023-04-27T11:10:36.823Z,2257.00
2023-04-27T11:11:36.791Z,2258.00
2023-04-27T11:12:36.819Z,2259.00
2023-04-27T11:13:36.739Z,2259.00
2023-04-27T11:14:36.733Z,2257.00
2023-04-27T11:15:36.685Z,2252.00
2023-04-27T11:16:36.698Z,2252.00
2023-04-27T11:17:36.665Z,2251.00
2023-04-27T11:18:36.621Z,2250.00
2023-04-27T11:19:36.601Z,2254.00
2023-04-27T11:20:36.583Z,2251.00
2023-04-27T11:21:36.558Z,2249.00
2023-04-27T11:22:36.563Z,2246.00
2023-04-27T11:23:36.549Z,2243.00
2023-04-27T11:24:36.556Z,2243.00
2023-04-27T11:25:36.545Z,2242.00
2023-04-27T11:26:36.543Z,2239.00
2023-04-27T11:27:36.530Z,2240.00
2023-04-27T11:28:36.528Z,2243.00
2023-04-27T11:29:36.538Z,2236.00
2023-04-27T11:30:36.506Z,2234.00
2023-04-27T11:31:36.544Z,2228.00
2023-04-27T11:32:36.541Z,2229.00
2023-04-27T11:33:36.483Z,2225.00
2023-04-27T11:34:36.475Z,2226.00
2023-04-27T11:35:36.481Z,2224.00
2023-04-27T11:36:36.466Z,2224.00
2023-04-27T11:37:36.449Z,2221.00
2023-04-27T11:38:36.484Z,2219.00
2023-04-27T11:39:36.434Z,2220.00
2023-04-27T11:40:36.423Z,2222.00
2023-04-27T11:41:36.419Z,2222.00
2023-04-27T11:42:36.417Z,2220.00
2023-04-27T11:43:36.385Z,2217.00
2023-04-27T11:44:36.368Z,2219.00
2023-04-27T11:45:36.346Z,2217.00
2023-04-27T11:46:36.380Z,2217.00
2023-04-27T11:47:36.350Z,2213.00
2023-04-27T11:48:36.317Z,2206.00
2023-04-27T11:49:36.289Z,2205.00
2023-04-27T11:50:36.266Z,2203.00
2023-04-27T11:51:36.258Z,2193.00
2023-04-27T11:52:36.246Z,2193.00
2023-04-27T11:53:36.218Z,2188.00
2023-04-27T11:54:36.189Z,2187.00
2023-04-27T11:55:36.163Z,2188.00
2023-04-27T11:56:36.227Z,2188.00
2023-04-27T11:57:36.170Z,2184.00
2023-04-27T11:58:36.152Z,2188.00
2023-04-27T11:59:36.091Z,2188.00
2023-04-27T12:00:36.058Z,2186.00
2023-04-27T12:01:38.461Z,2182.00
2023-04-27T12:02:36.281Z,2184.00
2023-04-27T12:03:36.389Z,2181.00
2023-04-27T12:04:36.237Z,2185.00
2023-04-27T12:05:36.079Z,2187.00
2023-04-27T12:06:36.082Z,2188.00